< < Back
Terminal Aerodrome Forecast


Current Version              Previous Versions:   1  2  3  4  5  6  7  8  9  

Terminal Aerodrome Forecast

970
FTUS44 KOHX 240500
TAFCSV
TAF
KCSV 240520Z 2406/2506 15003KT P6SM SCT250
     FM241400 16008G18KT P6SM SCT050 BKN250=

Latest METAR

474
SAUS70 KWBC 250100 RRB
MTRCSV
METAR KCSV 250053Z AUTO 17005KT 10SM CLR 22/13 A3023 RMK AO2 SLP220
T02220128


USA.gov is the U.S. government's official web portal to all federal, state and local government web resources and services.